createdAt,value
2017-12-27T00:00:32.210Z,1.47
2017-12-27T00:05:07.338Z,1.17
2017-12-27T00:09:42.475Z,1.23
2017-12-27T00:14:17.463Z,1.03
2017-12-27T00:17:49.194Z,1.30
2017-12-27T00:22:25.714Z,1.20
2017-12-27T00:27:01.843Z,1.17
2017-12-27T00:31:37.175Z,1.10
2017-12-27T00:34:05.474Z,1.10
2017-12-27T00:36:33.758Z,1.20
2017-12-27T00:39:02.047Z,1.00
2017-12-27T00:41:30.339Z,1.20
2017-12-27T00:43:58.609Z,0.93
2017-12-27T00:46:26.905Z,0.90
2017-12-27T00:48:55.305Z,1.00
2017-12-27T00:51:23.587Z,1.03
2017-12-27T00:53:51.978Z,0.90
2017-12-27T00:56:20.307Z,0.90
2017-12-27T00:58:48.538Z,0.90
2017-12-27T01:01:16.831Z,1.13
2017-12-27T01:03:45.096Z,0.87
2017-12-27T01:06:13.374Z,1.07
2017-12-27T01:08:41.782Z,1.07
2017-12-27T01:11:10.074Z,1.20
2017-12-27T01:13:38.574Z,0.90
2017-12-27T01:16:08.026Z,1.10
2017-12-27T01:18:36.374Z,0.90
2017-12-27T01:21:04.732Z,1.00
2017-12-27T01:23:32.995Z,0.90
2017-12-27T01:26:01.267Z,0.90
2017-12-27T01:28:29.711Z,0.87
2017-12-27T01:30:58.011Z,0.87
2017-12-27T01:33:26.319Z,1.20
2017-12-27T01:35:54.756Z,0.80
2017-12-27T01:38:23.002Z,0.90
2017-12-27T01:40:51.291Z,0.90
2017-12-27T01:43:19.530Z,1.00
2017-12-27T01:45:47.825Z,1.10
2017-12-27T01:48:16.127Z,1.00
2017-12-27T01:50:44.538Z,0.90
2017-12-27T01:53:12.859Z,0.90
2017-12-27T01:55:41.134Z,0.80
2017-12-27T01:58:09.752Z,1.10
2017-12-27T02:00:38.130Z,0.90
2017-12-27T02:03:06.428Z,0.80
2017-12-27T02:05:35.139Z,1.07
2017-12-27T02:08:03.378Z,0.90
2017-12-27T02:10:31.675Z,1.00
2017-12-27T02:13:00.023Z,1.10
2017-12-27T02:15:28.327Z,1.10
2017-12-27T02:17:56.891Z,1.10
2017-12-27T02:20:25.186Z,0.80
2017-12-27T02:22:53.490Z,1.00
2017-12-27T02:25:21.778Z,1.00
2017-12-27T02:27:50.069Z,0.90
2017-12-27T02:30:18.366Z,1.00
2017-12-27T02:32:46.763Z,0.93
2017-12-27T02:35:15.031Z,0.90
2017-12-27T02:37:43.398Z,1.03
2017-12-27T02:40:21.310Z,0.80
2017-12-27T02:42:49.607Z,0.90
2017-12-27T02:45:17.882Z,1.07
2017-12-27T02:47:46.167Z,0.90
2017-12-27T02:50:14.664Z,0.90
2017-12-27T02:52:42.940Z,0.80
2017-12-27T02:55:11.269Z,0.80
2017-12-27T02:57:39.538Z,1.00
2017-12-27T03:00:08.086Z,1.40
2017-12-27T03:02:36.400Z,0.83
2017-12-27T03:05:04.687Z,0.93
2017-12-27T03:07:32.967Z,1.10
2017-12-27T03:10:01.312Z,1.00
2017-12-27T03:12:29.698Z,0.90
2017-12-27T03:14:57.962Z,0.90
2017-12-27T03:17:26.374Z,1.00
2017-12-27T03:19:54.650Z,0.83
2017-12-27T03:22:22.988Z,0.90
2017-12-27T03:24:51.258Z,0.93
2017-12-27T03:27:19.678Z,0.83
2017-12-27T03:29:47.947Z,1.00
2017-12-27T03:32:16.291Z,1.00
2017-12-27T03:34:44.546Z,1.00
2017-12-27T03:37:12.820Z,0.90
2017-12-27T03:39:41.078Z,0.93
2017-12-27T03:42:09.536Z,0.87
2017-12-27T03:44:37.774Z,1.00
2017-12-27T03:47:06.043Z,0.97
2017-12-27T03:49:34.495Z,1.43
2017-12-27T03:52:02.854Z,1.20
2017-12-27T03:54:31.490Z,1.10
2017-12-27T03:56:59.782Z,0.90
2017-12-27T03:59:28.044Z,1.17
2017-12-27T04:01:56.363Z,0.90
2017-12-27T04:04:24.630Z,0.90
2017-12-27T04:06:52.914Z,0.93
2017-12-27T04:09:21.699Z,1.00
2017-12-27T04:11:50.054Z,0.87
2017-12-27T04:14:18.330Z,1.03
2017-12-27T04:16:46.616Z,1.00
2017-12-27T04:19:15.114Z,0.90
2017-12-27T04:21:43.395Z,0.80
2017-12-27T04:24:11.898Z,0.80
2017-12-27T04:26:40.214Z,0.93
2017-12-27T04:29:08.538Z,1.00
2017-12-27T04:31:36.815Z,1.10
2017-12-27T04:34:05.311Z,0.97
2017-12-27T04:36:33.655Z,0.70
2017-12-27T04:39:01.902Z,0.80
2017-12-27T04:41:30.191Z,0.93
2017-12-27T04:43:58.659Z,0.90
2017-12-27T04:46:26.966Z,0.90
2017-12-27T04:48:55.397Z,1.20
2017-12-27T04:51:23.882Z,1.00
2017-12-27T04:53:52.126Z,0.80
2017-12-27T04:56:20.418Z,1.00
2017-12-27T04:58:48.703Z,0.77
2017-12-27T05:01:17.019Z,1.20
2017-12-27T05:03:45.313Z,0.90
2017-12-27T05:06:13.813Z,0.80
2017-12-27T05:08:42.103Z,0.90
2017-12-27T05:11:10.370Z,1.17
2017-12-27T05:13:38.656Z,1.20
2017-12-27T05:16:06.926Z,0.90
2017-12-27T05:18:35.179Z,1.00
2017-12-27T05:21:03.470Z,0.90
2017-12-27T05:23:31.726Z,0.93
2017-12-27T05:26:00.008Z,1.13
2017-12-27T05:28:28.246Z,0.80
2017-12-27T05:30:56.530Z,0.93
2017-12-27T05:33:24.808Z,0.90
2017-12-27T05:35:53.081Z,0.90
2017-12-27T05:38:21.362Z,0.90
2017-12-27T05:40:49.654Z,0.90
2017-12-27T05:43:18.302Z,1.10
2017-12-27T05:45:46.575Z,0.90
2017-12-27T05:48:15.036Z,1.00
2017-12-27T05:50:43.359Z,0.80
2017-12-27T05:53:11.607Z,0.93
2017-12-27T05:55:40.074Z,1.00
2017-12-27T05:58:08.359Z,1.30
2017-12-27T06:00:36.663Z,0.90
2017-12-27T06:03:05.563Z,0.80
2017-12-27T06:05:33.906Z,0.90
2017-12-27T06:08:02.214Z,1.30
2017-12-27T06:10:30.550Z,2.30
2017-12-27T06:12:58.880Z,1.47
2017-12-27T06:15:27.241Z,1.40
2017-12-27T06:17:55.498Z,1.50
2017-12-27T06:20:23.922Z,0.93
2017-12-27T06:22:52.175Z,1.40
2017-12-27T06:25:20.463Z,1.00
2017-12-27T06:27:48.802Z,1.33
2017-12-27T06:30:17.230Z,1.20
2017-12-27T06:32:45.815Z,1.40
2017-12-27T06:35:14.138Z,1.20
2017-12-27T06:37:42.558Z,1.40
2017-12-27T06:40:10.951Z,1.27
2017-12-27T06:42:39.232Z,1.27
2017-12-27T06:45:07.535Z,1.10
2017-12-27T06:47:35.815Z,1.13
2017-12-27T06:50:04.110Z,1.13
2017-12-27T06:52:32.394Z,1.00
2017-12-27T06:55:00.787Z,1.50
2017-12-27T06:57:29.110Z,1.10
2017-12-27T06:59:57.398Z,0.90
2017-12-27T07:02:25.838Z,1.13
2017-12-27T07:04:54.125Z,1.10
2017-12-27T07:07:22.431Z,1.13
2017-12-27T07:09:50.694Z,1.00
2017-12-27T07:12:19.029Z,0.97
2017-12-27T07:14:47.300Z,1.13
2017-12-27T07:17:15.677Z,0.93
2017-12-27T07:19:44.003Z,1.00
2017-12-27T07:22:12.319Z,0.87
2017-12-27T07:24:40.620Z,1.13
2017-12-27T07:27:09.015Z,1.10
2017-12-27T07:29:37.288Z,0.97
2017-12-27T07:32:05.634Z,1.23
2017-12-27T07:34:34.031Z,0.90
2017-12-27T07:37:02.329Z,1.17
2017-12-27T07:39:30.592Z,1.00
2017-12-27T07:41:59.096Z,1.13
2017-12-27T07:44:27.389Z,1.10
2017-12-27T07:46:56.105Z,1.00
2017-12-27T07:49:24.445Z,0.90
2017-12-27T07:51:52.730Z,0.93
2017-12-27T07:54:21.063Z,1.07
2017-12-27T07:56:49.402Z,1.00
2017-12-27T07:59:17.960Z,1.10
2017-12-27T08:01:46.303Z,0.90
2017-12-27T08:04:14.611Z,1.20
2017-12-27T08:06:42.975Z,1.30
2017-12-27T08:09:11.238Z,1.47
2017-12-27T08:11:39.571Z,1.50
2017-12-27T08:14:07.863Z,1.70
2017-12-27T08:16:36.163Z,1.73
2017-12-27T08:19:04.482Z,2.07
2017-12-27T08:21:32.926Z,2.10
2017-12-27T08:24:01.194Z,1.90
2017-12-27T08:26:29.729Z,1.60
2017-12-27T08:28:57.999Z,1.70
2017-12-27T08:31:26.306Z,1.60
2017-12-27T08:33:54.689Z,1.70
2017-12-27T08:36:22.972Z,1.60
2017-12-27T08:38:51.256Z,1.80
2017-12-27T08:41:19.552Z,1.70
2017-12-27T08:43:48.007Z,1.50
2017-12-27T08:46:16.294Z,1.70
2017-12-27T08:48:44.559Z,1.90
2017-12-27T08:51:12.995Z,1.47
2017-12-27T08:53:41.334Z,1.93
2017-12-27T08:56:09.620Z,1.60
2017-12-27T08:58:37.888Z,1.90
2017-12-27T09:01:06.182Z,1.80
2017-12-27T09:03:34.483Z,1.40
2017-12-27T09:06:02.851Z,1.60
2017-12-27T09:08:31.126Z,1.90
2017-12-27T09:10:59.415Z,1.77
2017-12-27T09:13:27.906Z,1.90
2017-12-27T09:15:56.239Z,1.97
2017-12-27T09:18:25.116Z,1.63
2017-12-27T09:20:53.412Z,2.03
2017-12-27T09:23:21.693Z,2.00
2017-12-27T09:25:50.038Z,2.40
2017-12-27T09:28:18.302Z,1.70
2017-12-27T09:30:46.710Z,2.00
2017-12-27T09:33:14.950Z,2.30
2017-12-27T09:35:43.261Z,1.80
2017-12-27T09:38:11.714Z,1.70
2017-12-27T09:40:40.007Z,1.83
2017-12-27T09:43:08.487Z,2.20
2017-12-27T09:45:36.816Z,2.20
2017-12-27T09:48:05.142Z,2.40
2017-12-27T09:50:33.423Z,2.57
2017-12-27T09:53:01.778Z,2.67
2017-12-27T09:55:30.107Z,2.80
2017-12-27T09:57:58.436Z,3.10
2017-12-27T10:00:26.838Z,2.93
2017-12-27T10:02:55.120Z,2.70
2017-12-27T10:05:23.411Z,2.90
2017-12-27T10:07:51.664Z,3.27
2017-12-27T10:10:19.951Z,3.07
2017-12-27T10:12:48.268Z,3.10
2017-12-27T10:15:16.579Z,3.30
2017-12-27T10:17:44.839Z,2.87
2017-12-27T10:20:13.250Z,3.20
2017-12-27T10:22:41.490Z,3.10
2017-12-27T10:25:09.939Z,3.50
2017-12-27T10:27:38.227Z,3.27
2017-12-27T10:30:06.522Z,3.20
2017-12-27T10:32:34.786Z,2.77
2017-12-27T10:35:03.039Z,3.23
2017-12-27T10:37:31.793Z,3.20
2017-12-27T10:40:00.028Z,3.10
2017-12-27T10:42:28.803Z,2.90
2017-12-27T10:44:57.084Z,3.47
2017-12-27T10:47:25.413Z,3.63
2017-12-27T10:49:53.729Z,4.17
2017-12-27T10:52:22.078Z,4.10
2017-12-27T10:54:50.322Z,4.53
2017-12-27T10:57:18.834Z,4.43
2017-12-27T10:59:47.198Z,3.43
2017-12-27T11:02:15.530Z,3.23
2017-12-27T11:04:43.807Z,3.60
2017-12-27T11:07:12.132Z,3.30
2017-12-27T11:09:40.486Z,3.03
2017-12-27T11:12:08.824Z,2.83
2017-12-27T11:14:37.926Z,3.03
2017-12-27T11:17:06.227Z,3.40
2017-12-27T11:19:34.559Z,3.17
2017-12-27T11:22:02.923Z,3.13
2017-12-27T11:24:31.383Z,3.90
2017-12-27T11:26:59.663Z,2.87
2017-12-27T11:29:27.995Z,2.97
2017-12-27T11:31:56.298Z,3.27
2017-12-27T11:34:24.554Z,3.20
2017-12-27T11:36:52.994Z,2.70
2017-12-27T11:39:21.414Z,3.23
2017-12-27T11:41:49.686Z,2.67
2017-12-27T11:44:17.969Z,2.50
2017-12-27T11:46:46.259Z,2.50
2017-12-27T11:49:14.558Z,2.90
2017-12-27T11:51:42.860Z,2.80
2017-12-27T11:54:11.391Z,2.77
2017-12-27T11:56:39.682Z,3.50
2017-12-27T11:59:07.934Z,2.70
2017-12-27T12:01:36.239Z,2.93
2017-12-27T12:04:04.523Z,2.33
2017-12-27T12:06:32.823Z,2.57
2017-12-27T12:09:01.362Z,2.37
2017-12-27T12:11:29.639Z,2.87
2017-12-27T12:13:58.098Z,2.67
2017-12-27T12:16:26.630Z,2.83
2017-12-27T12:18:55.471Z,2.77
2017-12-27T12:21:23.998Z,2.10
2017-12-27T12:23:52.458Z,2.80
2017-12-27T12:26:20.760Z,2.40
2017-12-27T12:28:49.419Z,2.80
2017-12-27T12:31:17.718Z,2.67
2017-12-27T12:33:46.056Z,3.03
2017-12-27T12:36:14.652Z,2.67
2017-12-27T12:38:43.135Z,2.90
2017-12-27T12:41:11.431Z,3.00
2017-12-27T12:43:39.705Z,2.60
2017-12-27T12:46:08.013Z,2.50
2017-12-27T12:48:36.281Z,2.33
2017-12-27T12:51:04.938Z,2.30
2017-12-27T12:53:33.383Z,2.37
2017-12-27T12:56:01.782Z,2.07
2017-12-27T12:58:30.147Z,3.13
2017-12-27T13:00:58.611Z,2.43
2017-12-27T13:03:26.926Z,2.50
2017-12-27T13:05:55.203Z,2.90
2017-12-27T13:08:23.483Z,2.90
2017-12-27T13:10:52.094Z,2.63
2017-12-27T13:13:20.491Z,2.53
2017-12-27T13:15:48.939Z,2.37
2017-12-27T13:18:17.223Z,2.83
2017-12-27T13:20:45.525Z,2.40
2017-12-27T13:23:13.971Z,2.83
2017-12-27T13:25:42.442Z,2.60
2017-12-27T13:28:10.731Z,2.80
2017-12-27T13:30:39.019Z,2.73
2017-12-27T13:33:07.258Z,2.73
2017-12-27T13:35:35.577Z,2.93
2017-12-27T13:38:03.823Z,2.63
2017-12-27T13:40:32.287Z,2.53
2017-12-27T13:43:00.571Z,2.50
2017-12-27T13:45:28.866Z,2.53
2017-12-27T13:47:57.149Z,2.00
2017-12-27T13:50:25.863Z,2.83
2017-12-27T13:52:54.193Z,2.47
2017-12-27T13:55:22.798Z,2.40
2017-12-27T13:57:51.107Z,2.47
2017-12-27T14:00:19.416Z,2.53
2017-12-27T14:02:47.707Z,2.80
2017-12-27T14:05:16.142Z,2.30
2017-12-27T14:07:44.878Z,2.27
2017-12-27T14:10:13.518Z,2.50
2017-12-27T14:12:41.936Z,2.67
2017-12-27T14:15:10.350Z,2.70
2017-12-27T14:17:39.122Z,2.60
2017-12-27T14:20:07.613Z,3.03
2017-12-27T14:22:35.918Z,2.33
2017-12-27T14:25:05.518Z,2.23
2017-12-27T14:27:33.819Z,2.33
2017-12-27T14:30:02.066Z,2.50
2017-12-27T14:32:31.430Z,2.67
2017-12-27T14:34:59.670Z,3.00
2017-12-27T14:37:28.114Z,2.47
2017-12-27T14:39:56.437Z,2.47
2017-12-27T14:42:25.291Z,2.93
2017-12-27T14:44:53.619Z,2.60
2017-12-27T14:47:21.970Z,2.67
2017-12-27T14:49:50.268Z,2.80
2017-12-27T14:52:18.777Z,2.30
2017-12-27T14:54:47.063Z,2.67
2017-12-27T14:57:15.508Z,2.90
2017-12-27T14:59:43.906Z,2.50
2017-12-27T15:02:12.204Z,2.53
2017-12-27T15:04:40.467Z,2.80
2017-12-27T15:07:09.075Z,2.53
2017-12-27T15:09:37.349Z,3.10
2017-12-27T15:12:05.696Z,2.60
2017-12-27T15:14:35.062Z,2.60
2017-12-27T15:17:03.391Z,3.30
2017-12-27T15:19:31.683Z,4.33
2017-12-27T15:22:00.011Z,4.57
2017-12-27T15:24:28.378Z,4.43
2017-12-27T15:26:56.683Z,4.27
2017-12-27T15:29:25.474Z,4.93
2017-12-27T15:31:53.766Z,4.83
2017-12-27T15:34:22.089Z,4.77
2017-12-27T15:36:50.618Z,4.40
2017-12-27T15:39:18.877Z,4.17
2017-12-27T15:41:47.150Z,4.20
2017-12-27T15:44:15.394Z,3.83
2017-12-27T15:46:44.147Z,4.50
2017-12-27T15:49:12.490Z,4.10
2017-12-27T15:51:40.869Z,4.27
2017-12-27T15:54:09.483Z,3.50
2017-12-27T15:56:37.795Z,3.47
2017-12-27T15:59:06.082Z,3.13
2017-12-27T16:01:34.390Z,3.37
2017-12-27T16:04:02.714Z,3.60
2017-12-27T16:07:45.502Z,3.23
2017-12-27T16:10:13.855Z,3.37
2017-12-27T16:12:42.135Z,2.97
2017-12-27T16:15:10.457Z,3.27
2017-12-27T16:17:38.971Z,3.00
2017-12-27T16:20:07.321Z,3.13
2017-12-27T16:22:35.571Z,3.27
2017-12-27T16:25:03.887Z,3.20
2017-12-27T16:27:32.203Z,3.80
2017-12-27T16:30:00.539Z,3.20
2017-12-27T16:32:28.859Z,2.87
2017-12-27T16:34:57.322Z,3.20
2017-12-27T16:37:25.614Z,3.53
2017-12-27T16:39:54.091Z,3.50
2017-12-27T16:42:22.383Z,3.80
2017-12-27T16:44:51.084Z,3.43
2017-12-27T16:47:19.323Z,4.03
2017-12-27T16:49:47.773Z,4.10
2017-12-27T16:52:16.291Z,3.70
2017-12-27T16:54:46.205Z,3.73
2017-12-27T16:57:14.499Z,4.03
2017-12-27T16:59:42.945Z,3.30
2017-12-27T17:02:11.247Z,3.80
2017-12-27T17:04:39.518Z,4.23
2017-12-27T17:07:07.919Z,3.77
2017-12-27T17:09:36.204Z,3.50
2017-12-27T17:12:04.797Z,3.57
2017-12-27T17:14:33.121Z,4.23
2017-12-27T17:17:01.475Z,3.63
2017-12-27T17:19:29.903Z,4.20
2017-12-27T17:21:58.200Z,4.47
2017-12-27T17:24:26.482Z,3.63
2017-12-27T17:26:54.780Z,3.73
2017-12-27T17:29:23.068Z,4.33
2017-12-27T17:31:51.519Z,4.03
2017-12-27T17:34:20.106Z,4.10
2017-12-27T17:36:48.406Z,3.83
2017-12-27T17:39:16.687Z,3.63
2017-12-27T17:41:45.100Z,3.93
2017-12-27T17:44:13.380Z,3.40
2017-12-27T17:46:41.796Z,3.93
2017-12-27T17:49:10.090Z,3.60
2017-12-27T17:51:38.544Z,4.77
2017-12-27T17:54:06.795Z,3.90
2017-12-27T17:56:35.098Z,4.10
2017-12-27T17:59:03.534Z,3.80
2017-12-27T18:01:31.831Z,4.40
2017-12-27T18:04:00.131Z,4.70
2017-12-27T18:06:28.414Z,5.27
2017-12-27T18:08:56.880Z,4.80
2017-12-27T18:11:25.230Z,4.63
2017-12-27T18:13:53.682Z,4.60
2017-12-27T18:16:22.329Z,4.63
2017-12-27T18:18:50.647Z,4.80
2017-12-27T18:21:19.070Z,4.50
2017-12-27T18:23:47.363Z,4.63
2017-12-27T18:26:15.699Z,4.47
2017-12-27T18:28:44.003Z,4.80
2017-12-27T18:31:12.327Z,4.57
2017-12-27T18:33:40.627Z,4.63
2017-12-27T18:36:08.922Z,4.43
2017-12-27T18:38:37.266Z,4.37
2017-12-27T18:41:05.588Z,4.63
2017-12-27T18:43:34.099Z,4.60
2017-12-27T18:46:04.115Z,4.20
2017-12-27T18:48:32.529Z,4.80
2017-12-27T18:51:00.859Z,4.73
2017-12-27T18:53:29.844Z,4.30
2017-12-27T18:55:58.169Z,4.43
2017-12-27T18:58:26.463Z,5.10
2017-12-27T19:00:54.958Z,4.57
2017-12-27T19:03:23.262Z,4.50
2017-12-27T19:05:51.834Z,4.67
2017-12-27T19:08:20.397Z,4.30
2017-12-27T19:10:48.846Z,4.60
2017-12-27T19:13:17.126Z,5.00
2017-12-27T19:15:45.419Z,5.10
2017-12-27T19:18:13.699Z,4.20
2017-12-27T19:20:41.974Z,4.70
2017-12-27T19:23:10.419Z,4.10
2017-12-27T19:25:38.723Z,5.10
2017-12-27T19:28:06.995Z,4.23
2017-12-27T19:30:35.274Z,4.37
2017-12-27T19:33:03.515Z,5.10
2017-12-27T19:35:31.853Z,5.00
2017-12-27T19:38:00.182Z,4.60
2017-12-27T19:40:28.502Z,4.60
2017-12-27T19:42:56.794Z,4.90
2017-12-27T19:45:25.390Z,5.30
2017-12-27T19:47:53.865Z,5.17
2017-12-27T19:50:22.203Z,5.60
2017-12-27T19:52:50.477Z,4.80
2017-12-27T19:55:18.770Z,4.60
2017-12-27T19:57:47.079Z,4.63
2017-12-27T20:00:18.159Z,5.50
2017-12-27T20:02:46.447Z,5.27
2017-12-27T20:05:14.722Z,5.33
2017-12-27T20:07:43.290Z,5.17
2017-12-27T20:10:11.586Z,5.37
2017-12-27T20:12:40.019Z,5.03
2017-12-27T20:15:08.380Z,5.10
2017-12-27T20:17:36.794Z,5.07
2017-12-27T20:20:05.198Z,5.27
2017-12-27T20:22:33.477Z,4.60
2017-12-27T20:25:01.840Z,5.10
2017-12-27T20:27:30.167Z,4.47
2017-12-27T20:29:58.610Z,5.33
2017-12-27T20:32:26.928Z,4.93
2017-12-27T20:34:55.210Z,4.90
2017-12-27T20:37:25.029Z,5.30
2017-12-27T20:39:53.930Z,5.63
2017-12-27T20:42:22.268Z,5.30
2017-12-27T20:44:50.612Z,5.27
2017-12-27T20:47:18.927Z,4.70
2017-12-27T20:49:47.167Z,5.13
2017-12-27T20:52:15.754Z,5.87
2017-12-27T20:54:43.989Z,4.80
2017-12-27T20:57:12.315Z,4.83
2017-12-27T20:59:40.599Z,5.30
2017-12-27T21:02:08.919Z,5.13
2017-12-27T21:04:37.185Z,5.30
2017-12-27T21:07:05.655Z,5.07
2017-12-27T21:09:33.953Z,4.00
2017-12-27T21:12:02.302Z,4.73
2017-12-27T21:14:30.634Z,4.70
2017-12-27T21:16:59.142Z,4.03
2017-12-27T21:19:27.408Z,4.77
2017-12-27T21:21:55.723Z,5.83
2017-12-27T21:24:24.973Z,4.10
2017-12-27T21:26:53.330Z,4.53
2017-12-27T21:29:21.631Z,4.73
2017-12-27T21:31:49.942Z,4.73
2017-12-27T21:34:18.315Z,4.40
2017-12-27T21:36:46.698Z,5.37
2017-12-27T21:39:14.957Z,4.90
2017-12-27T21:41:43.264Z,5.40
2017-12-27T21:44:11.607Z,5.77
2017-12-27T21:46:39.906Z,5.83
2017-12-27T21:50:12.098Z,5.60
2017-12-27T21:52:40.443Z,5.50
2017-12-27T21:55:08.739Z,5.50
2017-12-27T21:57:37.099Z,4.83
2017-12-27T22:01:13.845Z,5.30
2017-12-27T22:03:42.148Z,5.33
2017-12-27T22:06:10.442Z,4.73
2017-12-27T22:08:38.694Z,5.53
2017-12-27T22:11:07.003Z,6.10
2017-12-27T22:13:35.455Z,6.47
2017-12-27T22:16:03.839Z,6.93
2017-12-27T22:18:32.387Z,6.13
2017-12-27T22:21:04.853Z,6.13
2017-12-27T22:23:33.118Z,6.10
2017-12-27T22:26:01.427Z,6.50
2017-12-27T22:28:29.787Z,5.77
2017-12-27T22:30:58.167Z,6.13
2017-12-27T22:33:26.415Z,6.70
2017-12-27T22:35:54.696Z,6.40
2017-12-27T22:38:22.938Z,6.73
2017-12-27T22:40:51.245Z,6.23
2017-12-27T22:43:19.669Z,6.87
2017-12-27T22:45:47.975Z,5.67
2017-12-27T22:48:16.477Z,5.80
2017-12-27T22:50:44.837Z,5.10
2017-12-27T22:53:13.270Z,5.93
2017-12-27T22:55:41.775Z,5.23
2017-12-27T22:58:10.050Z,5.10
2017-12-27T23:00:39.713Z,5.37
2017-12-27T23:03:08.318Z,5.80
2017-12-27T23:05:36.634Z,5.50
2017-12-27T23:08:04.946Z,5.40
2017-12-27T23:10:33.228Z,6.33
2017-12-27T23:13:01.490Z,5.23
2017-12-27T23:15:29.941Z,5.50
2017-12-27T23:17:58.210Z,5.03
2017-12-27T23:20:26.493Z,5.43
2017-12-27T23:22:54.947Z,5.50
2017-12-27T23:25:23.242Z,5.40
2017-12-27T23:27:51.563Z,5.03
2017-12-27T23:30:19.838Z,4.97
2017-12-27T23:32:48.255Z,5.33
2017-12-27T23:35:16.543Z,4.67
2017-12-27T23:37:44.819Z,4.80
2017-12-27T23:40:13.149Z,4.87
2017-12-27T23:42:41.422Z,5.77
2017-12-27T23:45:09.885Z,5.30
2017-12-27T23:47:38.126Z,5.17
2017-12-27T23:50:06.450Z,4.60
2017-12-27T23:52:34.699Z,5.03
2017-12-27T23:55:02.991Z,4.90
2017-12-27T23:57:31.318Z,5.53
2017-12-27T23:59:59.530Z,5.00
